Airfield :
LOGIN :

Register | Disclaimer

   EN    FR    IT 

 










Legend :    VFR   Marginal VFR   IFR   Intensive IFR   Very Intensive IFR
Visi :
Ceiling :
>= 8 km
>= 3000ft
5 to 8 km
1000 to 3000 ft
1500m to 5 km
500 to 1000 ft
800 to 1500m
200 to 500 ft
< 800m
< 200 ft
Symbols :   Thunderstorms  Fog  Heavy snow  Heavy precipitations  Wind > 20 kt
SIGMETs :     Misc.  Thunderstorms  Icing  Turbulence  Mountain Waves  Volcanic Ashes






- Airport Elevation : 228 ft
- IATA code : OPO


LPPR - Porto Fr. Sa Carneiro

CURRENT METAR :
  • 091430Z 35004KT 310V020 CAVOK 13/10 Q1031

EXPIRED METARs :
  • 091400Z 36006KT 330V030 CAVOK 13/09 Q1031
  • 091330Z 33005KT 300V010 13/09 Q1032
  • 091300Z 04003KT 330V090 CAVOK 13/09 Q1032
  • 091230Z 06004KT 020V090 CAVOK 11/10 Q1032
  • 091200Z 07004KT 360V150 9000 FEW003 10/10 Q1033

TAF TAF LPPR
Valid from the 09 at 12:00 until the 10 at 12:00 UTC


091100Z 0912/1012 03005KT 6000 SCT002
BECMG 0912/0915 34010KT CAVOK
BECMG 0918/0920 VRB03KT 9999 FEW008
PROB30
TEMPO 0921/1008 3000 BR SCT002



MET'MAP, your aeronautical weather chart ! - Copyright ORBIFLY December 2007 - Disclaimer

ORBIFLY MET'MAP TEAM :

Programming & Development : Alexandra Zaïnal
Concept & original design : Baudouin d'Aumeries
Assistance for programming : Marc-Olivier Méhu
Technical & hardware support : Manuel Goepfert

Contact : metmap@orbifly.com




SOURCES & CREDITS :

   NOAA